Triboji Beach, Iowa
Current Conditions -  °F | °C
As of 7:13 AM on Saturday 22 Nov 2014 (Local Time) from KMJQ Reporting Station
Haze Haze  
Wind Chill: 23°   Ceiling: 100
Heat Index: 34°   Visibility: 1.2mi
Dew Point: 32°   Wind: 17mph
Humidity: 93%   Direction: 230°SW
Pressure: 29.77"   Gusts: NA
Location:  43.4265°N, 95.1547°W
Report Text: KMJQ 221313Z AUTO 23015KT 1 1/4SM BR OVC001 01/00 A2977 RMK AO2
Loading
Personal Weather Stations






























Interactive Weather Map New forecast layout! Learn more

10-Day Weather Forecast

Advertisements
Track Severe Weather on mobile